Cloud 9 — 2BRA3 — position and weather

sailwx.info

Track history (hours):
 
Tides and Currents Weather Stations Pressure Air Temp Water Temp Dewpoint Dewpoint Depression Visibility Wind Speed Wind Dir Waves Ship Positions

Cloud 9

Last reported at 2014-Sep-15 00:04 UTC. Time now 2014-Sep-16 09:27 UTC.
Position N 36°47' E 027°22'.

Length 60 m; draft 3.5 m.

Type: Other ship. MMSI: 235068579.

Date/timePositionNaut miles runAvg speedWind from/ knotsBaromVisibWave heightAir tempDewpointWater temp
2014-Sep-15 00:04N 36°47' E 027°22'813.0
2014-Sep-14 23:29N 36°39' E 027°22'  
2014-Sep-11 23:18N 36°56' E 027°16'1213.9
2014-Sep-11 22:26N 37°03' E 027°03'1314.3
2014-Sep-11 21:33N 37°12' E 026°52'1413.9
2014-Sep-11 20:33N 37°17' E 026°36'3 0.2
2014-Sep-11 03:10N 37°20' E 026°34'5 8.5
2014-Sep-11 02:33N 37°15' E 026°33'1414.0
2014-Sep-11 01:33N 37°18' E 026°15'1414.2
2014-Sep-11 00:33N 37°19' E 025°57'1413.6
2014-Sep-10 23:33N 37°21' E 025°40'1414.1
2014-Sep-10 22:33N 37°23' E 025°23'3 2.2
2014-Sep-10 21:22N 37°25' E 025°21'0 0.0
2014-Sep-10 20:28N 37°25' E 025°21'0 0.0
2014-Sep-10 19:28N 37°25' E 025°21'0 0.0
2014-Sep-10 18:29N 37°25' E 025°21'0 0.0
2014-Sep-10 17:32N 37°25' E 025°21'0 0.0
2014-Sep-10 16:28N 37°25' E 025°21'0 0.0
2014-Sep-10 15:28N 37°25' E 025°21'0 0.0
2014-Sep-10 14:29N 37°25' E 025°21'0 0.0
2014-Sep-10 13:28N 37°25' E 025°21'0 0.0
2014-Sep-10 12:28N 37°25' E 025°21'0 0.2
2014-Sep-10 11:32N 37°24' E 025°21'0 0.0
2014-Sep-10 10:32N 37°24' E 025°21'0 0.0
2014-Sep-10 09:32N 37°24' E 025°21'0 0.0
2014-Sep-10 08:32N 37°24' E 025°21'0 0.0
2014-Sep-10 07:32N 37°24' E 025°21'0 0.3
2014-Sep-10 06:32N 37°25' E 025°20'1 0.7
2014-Sep-10 05:33N 37°25' E 025°20'0 0.0
2014-Sep-10 04:33N 37°25' E 025°20'0 0.0
2014-Sep-10 03:33N 37°25' E 025°20'0 0.0
2014-Sep-10 02:33N 37°25' E 025°20'0 0.0
2014-Sep-10 01:33N 37°25' E 025°20'0 0.0
2014-Sep-10 00:33N 37°25' E 025°20'0 0.0
2014-Sep-09 23:30N 37°25' E 025°20'0 0.0
2014-Sep-09 22:33N 37°25' E 025°20'0 0.0
2014-Sep-09 21:30N 37°25' E 025°20'0 0.0
2014-Sep-09 20:33N 37°25' E 025°20'0 0.0
2014-Sep-09 19:30N 37°25' E 025°20'0 0.0
2014-Sep-09 18:33N 37°25' E 025°20'0 0.0
2014-Sep-09 17:30N 37°25' E 025°20'0 0.0
2014-Sep-09 16:30N 37°25' E 025°20'0 0.0
2014-Sep-09 15:33N 37°25' E 025°20'0 0.0
2014-Sep-09 14:33N 37°25' E 025°20'0 0.0
2014-Sep-09 13:33N 37°25' E 025°20'0 0.0
2014-Sep-09 12:33N 37°25' E 025°20'0 0.0
2014-Sep-09 11:33N 37°25' E 025°20'0 0.0
2014-Sep-09 10:33N 37°25' E 025°20'0 0.0
2014-Sep-09 09:33N 37°25' E 025°20'0 0.0
2014-Sep-09 08:33N 37°25' E 025°20'0 0.0
2014-Sep-09 07:30N 37°25' E 025°20'0 0.0
2014-Sep-09 06:30N 37°25' E 025°20'0 0.0
2014-Sep-09 05:33N 37°25' E 025°20'0 0.0
2014-Sep-09 04:33N 37°25' E 025°20'0 0.0
2014-Sep-09 03:33N 37°25' E 025°20'0 0.0
2014-Sep-09 02:30N 37°25' E 025°20'0 0.0
2014-Sep-09 01:30N 37°25' E 025°20'0 0.0
2014-Sep-09 00:24N 37°25' E 025°20'0 0.0
2014-Sep-08 23:30N 37°25' E 025°20'0 0.0
2014-Sep-08 22:33N 37°25' E 025°20'0 0.0
2014-Sep-08 21:33N 37°25' E 025°20'0 0.0
2014-Sep-08 20:33N 37°25' E 025°20'0 0.0
2014-Sep-08 19:30N 37°25' E 025°20'1111.2
2014-Sep-08 18:33N 37°22' E 025°32'1514.6
2014-Sep-08 17:33N 37°20' E 025°51'1514.5
2014-Sep-08 16:33N 37°18' E 026°09'  
Track history (hours):
 
Tides and Currents Weather Stations Pressure Air Temp Water Temp Dewpoint Dewpoint Depression Visibility Wind Speed Wind Dir Waves Ship Positions

Cloud 9

Last reported at 2014-Sep-15 00:04 UTC. Time now 2014-Sep-16 09:27 UTC.
Position N 36°47' E 027°22'.

Length 60 m; draft 3.5 m.

Type: Other ship. MMSI: 235068579.

Date/timePositionNaut miles runAvg speedWind from/ knotsBaromVisibWave heightAir tempDewpointWater temp
2014-Sep-15 00:04N 36°47' E 027°22'813.0
2014-Sep-14 23:29N 36°39' E 027°22'  
2014-Sep-11 23:18N 36°56' E 027°16'1213.9
2014-Sep-11 22:26N 37°03' E 027°03'1314.3
2014-Sep-11 21:33N 37°12' E 026°52'1413.9
2014-Sep-11 20:33N 37°17' E 026°36'3 0.2
2014-Sep-11 03:10N 37°20' E 026°34'5 8.5
2014-Sep-11 02:33N 37°15' E 026°33'1414.0
2014-Sep-11 01:33N 37°18' E 026°15'1414.2
2014-Sep-11 00:33N 37°19' E 025°57'1413.6
2014-Sep-10 23:33N 37°21' E 025°40'1414.1
2014-Sep-10 22:33N 37°23' E 025°23'3 2.2
2014-Sep-10 21:22N 37°25' E 025°21'0 0.0
2014-Sep-10 20:28N 37°25' E 025°21'0 0.0
2014-Sep-10 19:28N 37°25' E 025°21'0 0.0
2014-Sep-10 18:29N 37°25' E 025°21'0 0.0
2014-Sep-10 17:32N 37°25' E 025°21'0 0.0
2014-Sep-10 16:28N 37°25' E 025°21'0 0.0
2014-Sep-10 15:28N 37°25' E 025°21'0 0.0
2014-Sep-10 14:29N 37°25' E 025°21'0 0.0
2014-Sep-10 13:28N 37°25' E 025°21'0 0.0
2014-Sep-10 12:28N 37°25' E 025°21'0 0.2
2014-Sep-10 11:32N 37°24' E 025°21'0 0.0
2014-Sep-10 10:32N 37°24' E 025°21'0 0.0
2014-Sep-10 09:32N 37°24' E 025°21'0 0.0
2014-Sep-10 08:32N 37°24' E 025°21'0 0.0
2014-Sep-10 07:32N 37°24' E 025°21'0 0.3
2014-Sep-10 06:32N 37°25' E 025°20'1 0.7
2014-Sep-10 05:33N 37°25' E 025°20'0 0.0
2014-Sep-10 04:33N 37°25' E 025°20'0 0.0
2014-Sep-10 03:33N 37°25' E 025°20'0 0.0
2014-Sep-10 02:33N 37°25' E 025°20'0 0.0
2014-Sep-10 01:33N 37°25' E 025°20'0 0.0
2014-Sep-10 00:33N 37°25' E 025°20'0 0.0
2014-Sep-09 23:30N 37°25' E 025°20'0 0.0
2014-Sep-09 22:33N 37°25' E 025°20'0 0.0
2014-Sep-09 21:30N 37°25' E 025°20'0 0.0
2014-Sep-09 20:33N 37°25' E 025°20'0 0.0
2014-Sep-09 19:30N 37°25' E 025°20'0 0.0
2014-Sep-09 18:33N 37°25' E 025°20'0 0.0
2014-Sep-09 17:30N 37°25' E 025°20'0 0.0
2014-Sep-09 16:30N 37°25' E 025°20'0 0.0
2014-Sep-09 15:33N 37°25' E 025°20'0 0.0
2014-Sep-09 14:33N 37°25' E 025°20'0 0.0
2014-Sep-09 13:33N 37°25' E 025°20'0 0.0
2014-Sep-09 12:33N 37°25' E 025°20'0 0.0
2014-Sep-09 11:33N 37°25' E 025°20'0 0.0
2014-Sep-09 10:33N 37°25' E 025°20'0 0.0
2014-Sep-09 09:33N 37°25' E 025°20'0 0.0
2014-Sep-09 08:33N 37°25' E 025°20'0 0.0
2014-Sep-09 07:30N 37°25' E 025°20'0 0.0
2014-Sep-09 06:30N 37°25' E 025°20'0 0.0
2014-Sep-09 05:33N 37°25' E 025°20'0 0.0
2014-Sep-09 04:33N 37°25' E 025°20'0 0.0
2014-Sep-09 03:33N 37°25' E 025°20'0 0.0
2014-Sep-09 02:30N 37°25' E 025°20'0 0.0
2014-Sep-09 01:30N 37°25' E 025°20'0 0.0
2014-Sep-09 00:24N 37°25' E 025°20'0 0.0
2014-Sep-08 23:30N 37°25' E 025°20'0 0.0
2014-Sep-08 22:33N 37°25' E 025°20'0 0.0
2014-Sep-08 21:33N 37°25' E 025°20'0 0.0
2014-Sep-08 20:33N 37°25' E 025°20'0 0.0
2014-Sep-08 19:30N 37°25' E 025°20'1111.2
2014-Sep-08 18:33N 37°22' E 025°32'1514.6
2014-Sep-08 17:33N 37°20' E 025°51'1514.5
2014-Sep-08 16:33N 37°18' E 026°09'  

Dump ship's entire track history